sensor_id;sensor_type;location;lat;lon;timestamp;pressure;altitude;pressure_sealevel;temperature;humidity
11515;BME280;5814;41.936;25.556;2022-08-21T00:00:51;112497.60;;;-145.99;100.00
11515;BME280;5814;41.936;25.556;2022-08-21T00:03:18;112497.60;;;-145.99;100.00
11515;BME280;5814;41.936;25.556;2022-08-21T00:05:47;112497.60;;;-145.99;100.00
11515;BME280;5814;41.936;25.556;2022-08-21T00:08:12;112497.60;;;-145.99;100.00
11515;BME280;5814;41.936;25.556;2022-08-21T00:10:40;112497.60;;;-145.99;100.00
11515;BME280;5814;41.936;25.556;2022-08-21T00:13:07;112497.60;;;-145.99;100.00
11515;BME280;5814;41.936;25.556;2022-08-21T00:15:35;112497.60;;;-145.99;100.00
11515;BME280;5814;41.936;25.556;2022-08-21T00:18:01;112497.60;;;-145.99;100.00
11515;BME280;5814;41.936;25.556;2022-08-21T00:20:28;112497.60;;;-145.99;100.00
11515;BME280;5814;41.936;25.556;2022-08-21T00:22:55;112497.60;;;-145.99;100.00
11515;BME280;5814;41.936;25.556;2022-08-21T00:25:23;112497.60;;;-145.99;100.00
11515;BME280;5814;41.936;25.556;2022-08-21T00:27:50;112497.60;;;-145.99;100.00
11515;BME280;5814;41.936;25.556;2022-08-21T00:30:17;112497.60;;;-145.99;100.00
11515;BME280;5814;41.936;25.556;2022-08-21T00:32:44;112497.60;;;-145.99;100.00
11515;BME280;5814;41.936;25.556;2022-08-21T00:35:13;112497.60;;;-145.99;100.00
11515;BME280;5814;41.936;25.556;2022-08-21T00:37:39;112497.60;;;-145.99;100.00
11515;BME280;5814;41.936;25.556;2022-08-21T00:40:07;112497.60;;;-145.99;100.00
11515;BME280;5814;41.936;25.556;2022-08-21T00:42:34;112497.60;;;-145.99;100.00
11515;BME280;5814;41.936;25.556;2022-08-21T00:45:02;112497.60;;;-145.99;100.00
11515;BME280;5814;41.936;25.556;2022-08-21T00:47:28;112497.60;;;-145.99;100.00
11515;BME280;5814;41.936;25.556;2022-08-21T00:49:56;112497.60;;;-145.99;100.00
11515;BME280;5814;41.936;25.556;2022-08-21T00:52:24;112497.60;;;-145.99;100.00
11515;BME280;5814;41.936;25.556;2022-08-21T00:54:50;112497.60;;;-145.99;100.00
11515;BME280;5814;41.936;25.556;2022-08-21T00:57:19;112497.60;;;-145.99;100.00
11515;BME280;5814;41.936;25.556;2022-08-21T00:59:45;112497.60;;;-145.99;100.00
11515;BME280;5814;41.936;25.556;2022-08-21T01:02:12;112497.60;;;-145.99;100.00
11515;BME280;5814;41.936;25.556;2022-08-21T01:04:39;112497.60;;;-145.99;100.00
11515;BME280;5814;41.936;25.556;2022-08-21T01:07:06;112497.60;;;-145.99;100.00
11515;BME280;5814;41.936;25.556;2022-08-21T01:09:33;112497.60;;;-145.99;100.00
11515;BME280;5814;41.936;25.556;2022-08-21T01:12:00;112497.60;;;-145.99;100.00
11515;BME280;5814;41.936;25.556;2022-08-21T01:14:27;112497.60;;;-145.99;100.00
11515;BME280;5814;41.936;25.556;2022-08-21T01:16:55;112497.60;;;-145.99;100.00
11515;BME280;5814;41.936;25.556;2022-08-21T01:19:22;112497.60;;;-145.99;100.00
11515;BME280;5814;41.936;25.556;2022-08-21T01:21:49;112497.60;;;-145.99;100.00
11515;BME280;5814;41.936;25.556;2022-08-21T01:24:17;112497.60;;;-145.99;100.00
11515;BME280;5814;41.936;25.556;2022-08-21T01:26:44;112497.60;;;-145.99;100.00
11515;BME280;5814;41.936;25.556;2022-08-21T01:29:32;112497.60;;;-145.99;100.00
11515;BME280;5814;41.936;25.556;2022-08-21T01:31:57;112497.60;;;-145.99;100.00
11515;BME280;5814;41.936;25.556;2022-08-21T01:34:24;112497.60;;;-145.99;100.00
11515;BME280;5814;41.936;25.556;2022-08-21T01:36:51;112497.60;;;-145.99;100.00
11515;BME280;5814;41.936;25.556;2022-08-21T01:39:18;112497.60;;;-145.99;100.00
11515;BME280;5814;41.936;25.556;2022-08-21T01:41:45;112497.60;;;-145.99;100.00
11515;BME280;5814;41.936;25.556;2022-08-21T01:44:13;112497.60;;;-145.99;100.00
11515;BME280;5814;41.936;25.556;2022-08-21T01:46:40;112497.60;;;-145.99;100.00
11515;BME280;5814;41.936;25.556;2022-08-21T01:49:07;112497.60;;;-145.99;100.00
11515;BME280;5814;41.936;25.556;2022-08-21T01:51:34;112497.60;;;-145.99;100.00
11515;BME280;5814;41.936;25.556;2022-08-21T01:54:02;112497.60;;;-145.99;100.00
11515;BME280;5814;41.936;25.556;2022-08-21T01:56:31;112497.60;;;-145.99;100.00
11515;BME280;5814;41.936;25.556;2022-08-21T01:58:56;112497.60;;;-145.99;100.00
11515;BME280;5814;41.936;25.556;2022-08-21T02:01:23;112497.60;;;-145.99;100.00
11515;BME280;5814;41.936;25.556;2022-08-21T02:03:50;112497.60;;;-145.99;100.00
11515;BME280;5814;41.936;25.556;2022-08-21T02:06:17;112497.60;;;-145.99;100.00
11515;BME280;5814;41.936;25.556;2022-08-21T02:08:45;112497.60;;;-145.99;100.00
11515;BME280;5814;41.936;25.556;2022-08-21T02:11:12;112497.60;;;-145.99;100.00
11515;BME280;5814;41.936;25.556;2022-08-21T02:13:39;112497.60;;;-145.99;100.00
11515;BME280;5814;41.936;25.556;2022-08-21T02:16:06;112497.60;;;-145.99;100.00
11515;BME280;5814;41.936;25.556;2022-08-21T02:18:34;112497.60;;;-145.99;100.00
11515;BME280;5814;41.936;25.556;2022-08-21T02:21:01;112497.60;;;-145.99;100.00
11515;BME280;5814;41.936;25.556;2022-08-21T02:23:28;112497.60;;;-145.99;100.00
11515;BME280;5814;41.936;25.556;2022-08-21T02:25:56;112497.60;;;-145.99;100.00
11515;BME280;5814;41.936;25.556;2022-08-21T02:28:23;112497.60;;;-145.99;100.00
11515;BME280;5814;41.936;25.556;2022-08-21T02:30:50;112497.60;;;-145.99;100.00
11515;BME280;5814;41.936;25.556;2022-08-21T02:33:17;112497.60;;;-145.99;100.00
11515;BME280;5814;41.936;25.556;2022-08-21T02:35:45;112497.60;;;-145.99;100.00
11515;BME280;5814;41.936;25.556;2022-08-21T02:38:13;112497.60;;;-145.99;100.00
11515;BME280;5814;41.936;25.556;2022-08-21T02:40:41;112497.60;;;-145.99;100.00
11515;BME280;5814;41.936;25.556;2022-08-21T02:43:06;112497.60;;;-145.99;100.00
11515;BME280;5814;41.936;25.556;2022-08-21T02:45:34;112497.60;;;-145.99;100.00
11515;BME280;5814;41.936;25.556;2022-08-21T02:48:02;112497.60;;;-145.99;100.00
11515;BME280;5814;41.936;25.556;2022-08-21T02:50:30;112497.60;;;-145.99;100.00
11515;BME280;5814;41.936;25.556;2022-08-21T02:52:55;112497.60;;;-145.99;100.00
11515;BME280;5814;41.936;25.556;2022-08-21T02:55:23;112497.60;;;-145.99;100.00
11515;BME280;5814;41.936;25.556;2022-08-21T02:57:49;112497.60;;;-145.99;100.00
11515;BME280;5814;41.936;25.556;2022-08-21T03:00:16;112497.60;;;-145.99;100.00
11515;BME280;5814;41.936;25.556;2022-08-21T03:02:44;112497.60;;;-145.99;100.00
11515;BME280;5814;41.936;25.556;2022-08-21T03:05:11;112497.60;;;-145.99;100.00
11515;BME280;5814;41.936;25.556;2022-08-21T03:07:38;112497.60;;;-145.99;100.00
11515;BME280;5814;41.936;25.556;2022-08-21T03:10:06;112497.60;;;-145.99;100.00
11515;BME280;5814;41.936;25.556;2022-08-21T03:12:33;112497.60;;;-145.99;100.00
11515;BME280;5814;41.936;25.556;2022-08-21T03:15:00;112497.60;;;-145.99;100.00
11515;BME280;5814;41.936;25.556;2022-08-21T03:17:27;112497.60;;;-145.99;100.00
11515;BME280;5814;41.936;25.556;2022-08-21T03:19:54;112497.60;;;-145.99;100.00
11515;BME280;5814;41.936;25.556;2022-08-21T03:22:21;112497.60;;;-145.99;100.00
11515;BME280;5814;41.936;25.556;2022-08-21T03:24:49;112497.60;;;-145.99;100.00
11515;BME280;5814;41.936;25.556;2022-08-21T03:27:16;112497.60;;;-145.99;100.00
11515;BME280;5814;41.936;25.556;2022-08-21T03:29:43;112497.60;;;-145.99;100.00
11515;BME280;5814;41.936;25.556;2022-08-21T03:32:10;112497.60;;;-145.99;100.00
11515;BME280;5814;41.936;25.556;2022-08-21T03:34:37;112497.60;;;-145.99;100.00
11515;BME280;5814;41.936;25.556;2022-08-21T03:37:05;112497.60;;;-145.99;100.00
11515;BME280;5814;41.936;25.556;2022-08-21T03:39:32;112497.60;;;-145.99;100.00
11515;BME280;5814;41.936;25.556;2022-08-21T03:41:59;112497.60;;;-145.99;100.00
11515;BME280;5814;41.936;25.556;2022-08-21T03:44:26;112497.60;;;-145.99;100.00
11515;BME280;5814;41.936;25.556;2022-08-21T03:46:54;112497.60;;;-145.99;100.00
11515;BME280;5814;41.936;25.556;2022-08-21T03:49:21;112497.60;;;-145.99;100.00
11515;BME280;5814;41.936;25.556;2022-08-21T03:51:48;112497.60;;;-145.99;100.00
11515;BME280;5814;41.936;25.556;2022-08-21T03:54:15;112497.60;;;-145.99;100.00
11515;BME280;5814;41.936;25.556;2022-08-21T03:56:42;112497.60;;;-145.99;100.00
11515;BME280;5814;41.936;25.556;2022-08-21T03:59:10;112497.60;;;-145.99;100.00
11515;BME280;5814;41.936;25.556;2022-08-21T04:01:37;112497.60;;;-145.99;100.00
11515;BME280;5814;41.936;25.556;2022-08-21T04:04:04;112497.60;;;-145.99;100.00
11515;BME280;5814;41.936;25.556;2022-08-21T04:06:31;112497.60;;;-145.99;100.00
11515;BME280;5814;41.936;25.556;2022-08-21T04:08:58;112497.60;;;-145.99;100.00
11515;BME280;5814;41.936;25.556;2022-08-21T04:11:25;112497.60;;;-145.99;100.00
11515;BME280;5814;41.936;25.556;2022-08-21T04:13:53;112497.60;;;-145.99;100.00
11515;BME280;5814;41.936;25.556;2022-08-21T04:16:20;112497.60;;;-145.99;100.00
11515;BME280;5814;41.936;25.556;2022-08-21T04:18:47;112497.60;;;-145.99;100.00
11515;BME280;5814;41.936;25.556;2022-08-21T04:21:14;112497.60;;;-145.99;100.00
11515;BME280;5814;41.936;25.556;2022-08-21T04:23:41;112497.60;;;-145.99;100.00
11515;BME280;5814;41.936;25.556;2022-08-21T04:26:09;112497.60;;;-145.99;100.00
11515;BME280;5814;41.936;25.556;2022-08-21T04:28:36;112497.60;;;-145.99;100.00
11515;BME280;5814;41.936;25.556;2022-08-21T04:31:03;112497.60;;;-145.99;100.00
11515;BME280;5814;41.936;25.556;2022-08-21T04:33:30;112497.60;;;-145.99;100.00
11515;BME280;5814;41.936;25.556;2022-08-21T04:35:58;112497.60;;;-145.99;100.00
11515;BME280;5814;41.936;25.556;2022-08-21T04:38:25;112497.60;;;-145.99;100.00
11515;BME280;5814;41.936;25.556;2022-08-21T04:40:52;112497.60;;;-145.99;100.00
11515;BME280;5814;41.936;25.556;2022-08-21T04:43:20;112497.60;;;-145.99;100.00
11515;BME280;5814;41.936;25.556;2022-08-21T04:45:48;112497.60;;;-145.99;100.00
11515;BME280;5814;41.936;25.556;2022-08-21T04:48:16;112497.60;;;-145.99;100.00
11515;BME280;5814;41.936;25.556;2022-08-21T04:50:52;112497.60;;;-145.99;100.00
11515;BME280;5814;41.936;25.556;2022-08-21T04:53:24;112497.60;;;-145.99;100.00
11515;BME280;5814;41.936;25.556;2022-08-21T04:55:50;112497.60;;;-145.99;100.00
11515;BME280;5814;41.936;25.556;2022-08-21T04:58:18;112497.60;;;-145.99;100.00
11515;BME280;5814;41.936;25.556;2022-08-21T05:00:45;112497.60;;;-145.99;100.00
11515;BME280;5814;41.936;25.556;2022-08-21T05:03:12;112497.60;;;-145.99;100.00
11515;BME280;5814;41.936;25.556;2022-08-21T05:05:39;112497.60;;;-145.99;100.00
11515;BME280;5814;41.936;25.556;2022-08-21T05:08:07;112497.60;;;-145.99;100.00
11515;BME280;5814;41.936;25.556;2022-08-21T05:10:34;112497.60;;;-145.99;100.00
11515;BME280;5814;41.936;25.556;2022-08-21T05:13:01;112497.60;;;-145.99;100.00
11515;BME280;5814;41.936;25.556;2022-08-21T05:15:28;112497.60;;;-145.99;100.00
11515;BME280;5814;41.936;25.556;2022-08-21T05:17:55;112497.60;;;-145.99;100.00
11515;BME280;5814;41.936;25.556;2022-08-21T05:20:22;112497.60;;;-145.99;100.00
11515;BME280;5814;41.936;25.556;2022-08-21T05:22:50;112497.60;;;-145.99;100.00
11515;BME280;5814;41.936;25.556;2022-08-21T05:25:17;112497.60;;;-145.99;100.00
11515;BME280;5814;41.936;25.556;2022-08-21T05:27:44;112497.60;;;-145.99;100.00
11515;BME280;5814;41.936;25.556;2022-08-21T05:30:11;112497.60;;;-145.99;100.00
11515;BME280;5814;41.936;25.556;2022-08-21T05:32:39;112497.60;;;-145.99;100.00
11515;BME280;5814;41.936;25.556;2022-08-21T05:35:07;112497.60;;;-145.99;100.00
11515;BME280;5814;41.936;25.556;2022-08-21T05:37:34;112497.60;;;-145.99;100.00
11515;BME280;5814;41.936;25.556;2022-08-21T05:40:03;112497.60;;;-145.99;100.00
11515;BME280;5814;41.936;25.556;2022-08-21T05:42:30;112497.60;;;-145.99;100.00
11515;BME280;5814;41.936;25.556;2022-08-21T05:44:57;112497.60;;;-145.99;100.00
11515;BME280;5814;41.936;25.556;2022-08-21T05:47:24;112497.60;;;-145.99;100.00
11515;BME280;5814;41.936;25.556;2022-08-21T05:49:51;112497.60;;;-145.99;100.00
11515;BME280;5814;41.936;25.556;2022-08-21T05:52:19;112497.60;;;-145.99;100.00
11515;BME280;5814;41.936;25.556;2022-08-21T05:54:46;112497.60;;;-145.99;100.00
11515;BME280;5814;41.936;25.556;2022-08-21T05:57:13;112497.60;;;-145.99;100.00
11515;BME280;5814;41.936;25.556;2022-08-21T05:59:40;98536.59;;;21.77;100.00
11515;BME280;5814;41.936;25.556;2022-08-21T06:02:07;112497.60;;;-145.99;100.00
11515;BME280;5814;41.936;25.556;2022-08-21T06:04:36;112497.60;;;-145.99;100.00
11515;BME280;5814;41.936;25.556;2022-08-21T06:07:04;112497.60;;;-145.99;100.00
11515;BME280;5814;41.936;25.556;2022-08-21T06:09:31;112497.60;;;-145.99;100.00
11515;BME280;5814;41.936;25.556;2022-08-21T06:11:58;112497.60;;;-145.99;100.00
11515;BME280;5814;41.936;25.556;2022-08-21T06:14:25;112497.60;;;-145.99;100.00
11515;BME280;5814;41.936;25.556;2022-08-21T06:16:52;112497.60;;;-145.99;100.00
11515;BME280;5814;41.936;25.556;2022-08-21T06:19:19;112497.60;;;-145.99;100.00
11515;BME280;5814;41.936;25.556;2022-08-21T06:21:47;112497.60;;;-145.99;100.00
11515;BME280;5814;41.936;25.556;2022-08-21T06:24:14;112497.60;;;-145.99;100.00
11515;BME280;5814;41.936;25.556;2022-08-21T06:26:41;112497.60;;;-145.99;100.00
11515;BME280;5814;41.936;25.556;2022-08-21T06:29:08;112497.60;;;-145.99;100.00
11515;BME280;5814;41.936;25.556;2022-08-21T06:31:35;112497.60;;;-145.99;100.00
11515;BME280;5814;41.936;25.556;2022-08-21T06:34:03;112497.60;;;-145.99;100.00
11515;BME280;5814;41.936;25.556;2022-08-21T06:36:30;112497.60;;;-145.99;100.00
11515;BME280;5814;41.936;25.556;2022-08-21T06:38:57;112497.60;;;-145.99;100.00
11515;BME280;5814;41.936;25.556;2022-08-21T06:41:24;112497.60;;;-145.99;100.00
11515;BME280;5814;41.936;25.556;2022-08-21T06:43:51;112497.60;;;-145.99;100.00
11515;BME280;5814;41.936;25.556;2022-08-21T06:46:18;112497.60;;;-145.99;100.00
11515;BME280;5814;41.936;25.556;2022-08-21T06:48:46;112497.60;;;-145.99;100.00
11515;BME280;5814;41.936;25.556;2022-08-21T06:51:13;112497.60;;;-145.99;100.00
11515;BME280;5814;41.936;25.556;2022-08-21T06:53:40;112497.60;;;-145.99;100.00
11515;BME280;5814;41.936;25.556;2022-08-21T06:56:07;112497.60;;;-145.99;100.00
11515;BME280;5814;41.936;25.556;2022-08-21T06:58:35;112497.60;;;-145.99;100.00
11515;BME280;5814;41.936;25.556;2022-08-21T07:01:02;112497.60;;;-145.99;100.00
11515;BME280;5814;41.936;25.556;2022-08-21T07:03:31;112497.60;;;-145.99;100.00
11515;BME280;5814;41.936;25.556;2022-08-21T07:05:56;112497.60;;;-145.99;100.00
11515;BME280;5814;41.936;25.556;2022-08-21T07:08:24;112497.60;;;-145.99;100.00
11515;BME280;5814;41.936;25.556;2022-08-21T07:10:51;98536.58;;;22.61;100.00
11515;BME280;5814;41.936;25.556;2022-08-21T07:13:18;112497.60;;;-145.99;100.00
11515;BME280;5814;41.936;25.556;2022-08-21T07:15:45;112497.60;;;-145.99;100.00
11515;BME280;5814;41.936;25.556;2022-08-21T07:18:12;112497.60;;;-145.99;100.00
11515;BME280;5814;41.936;25.556;2022-08-21T07:20:39;112497.60;;;-145.99;100.00
11515;BME280;5814;41.936;25.556;2022-08-21T07:23:08;112497.60;;;-145.99;100.00
11515;BME280;5814;41.936;25.556;2022-08-21T07:25:34;112497.60;;;-145.99;100.00
11515;BME280;5814;41.936;25.556;2022-08-21T07:28:02;112497.60;;;-145.99;100.00
11515;BME280;5814;41.936;25.556;2022-08-21T07:30:29;112497.60;;;-145.99;100.00
11515;BME280;5814;41.936;25.556;2022-08-21T07:32:56;98520.47;;;23.67;100.00
11515;BME280;5814;41.936;25.556;2022-08-21T07:35:23;112497.60;;;-145.99;100.00
11515;BME280;5814;41.936;25.556;2022-08-21T07:37:51;112497.60;;;-145.99;100.00
11515;BME280;5814;41.936;25.556;2022-08-21T07:40:18;112497.60;;;-145.99;100.00
11515;BME280;5814;41.936;25.556;2022-08-21T07:42:46;112497.60;;;-145.99;100.00
11515;BME280;5814;41.936;25.556;2022-08-21T07:45:13;112497.60;;;-145.99;100.00
11515;BME280;5814;41.936;25.556;2022-08-21T07:47:40;112497.60;;;-145.99;100.00
11515;BME280;5814;41.936;25.556;2022-08-21T07:50:07;112497.60;;;-145.99;100.00
11515;BME280;5814;41.936;25.556;2022-08-21T07:52:34;112497.60;;;-145.99;100.00
11515;BME280;5814;41.936;25.556;2022-08-21T07:55:02;112497.60;;;-145.99;100.00
11515;BME280;5814;41.936;25.556;2022-08-21T07:57:30;112497.60;;;-145.99;100.00
11515;BME280;5814;41.936;25.556;2022-08-21T07:59:57;112497.60;;;-145.99;100.00
11515;BME280;5814;41.936;25.556;2022-08-21T08:02:25;112497.60;;;-145.99;100.00
11515;BME280;5814;41.936;25.556;2022-08-21T08:04:52;112497.60;;;-145.99;100.00
11515;BME280;5814;41.936;25.556;2022-08-21T08:07:19;112497.60;;;-145.99;100.00
11515;BME280;5814;41.936;25.556;2022-08-21T08:09:46;112497.60;;;-145.99;100.00
11515;BME280;5814;41.936;25.556;2022-08-21T08:12:13;112497.60;;;-145.99;100.00
11515;BME280;5814;41.936;25.556;2022-08-21T08:14:41;112497.60;;;-145.99;100.00
11515;BME280;5814;41.936;25.556;2022-08-21T08:17:08;112497.60;;;-145.99;100.00
11515;BME280;5814;41.936;25.556;2022-08-21T08:19:35;112497.60;;;-145.99;100.00
11515;BME280;5814;41.936;25.556;2022-08-21T08:22:11;112497.60;;;-145.99;100.00
11515;BME280;5814;41.936;25.556;2022-08-21T08:24:29;112497.60;;;-145.99;100.00
11515;BME280;5814;41.936;25.556;2022-08-21T08:26:57;112497.60;;;-145.99;100.00
11515;BME280;5814;41.936;25.556;2022-08-21T08:29:24;112497.60;;;-145.99;100.00
11515;BME280;5814;41.936;25.556;2022-08-21T08:31:51;112497.60;;;-145.99;100.00
11515;BME280;5814;41.936;25.556;2022-08-21T08:34:18;112497.60;;;-145.99;100.00
11515;BME280;5814;41.936;25.556;2022-08-21T08:36:45;112497.60;;;-145.99;100.00
11515;BME280;5814;41.936;25.556;2022-08-21T15:52:08;98215.97;;;27.54;95.61
11515;BME280;5814;41.936;25.556;2022-08-21T15:54:35;98208.28;;;27.47;95.70
11515;BME280;5814;41.936;25.556;2022-08-21T15:57:03;112497.60;;;-145.99;100.00
11515;BME280;5814;41.936;25.556;2022-08-21T15:59:31;98214.70;;;27.21;93.59
11515;BME280;5814;41.936;25.556;2022-08-21T16:01:57;112497.60;;;-145.99;100.00
11515;BME280;5814;41.936;25.556;2022-08-21T16:04:26;112497.60;;;-145.99;100.00
11515;BME280;5814;41.936;25.556;2022-08-21T16:06:52;112497.60;;;-145.99;100.00
11515;BME280;5814;41.936;25.556;2022-08-21T16:09:19;112497.60;;;-145.99;100.00
11515;BME280;5814;41.936;25.556;2022-08-21T16:11:46;98221.83;;;26.72;93.59
11515;BME280;5814;41.936;25.556;2022-08-21T16:14:14;98220.33;;;26.70;93.84
11515;BME280;5814;41.936;25.556;2022-08-21T16:16:41;98221.16;;;26.70;93.56
11515;BME280;5814;41.936;25.556;2022-08-21T16:19:08;98207.98;;;26.52;94.64
11515;BME280;5814;41.936;25.556;2022-08-21T16:21:35;98223.52;;;26.40;95.80
11515;BME280;5814;41.936;25.556;2022-08-21T16:24:02;98224.78;;;26.45;96.09
11515;BME280;5814;41.936;25.556;2022-08-21T16:26:30;98233.19;;;26.29;97.02
11515;BME280;5814;41.936;25.556;2022-08-21T16:28:57;98240.97;;;26.02;98.90
11515;BME280;5814;41.936;25.556;2022-08-21T16:31:24;98235.32;;;25.87;100.00
11515;BME280;5814;41.936;25.556;2022-08-21T16:33:52;98233.45;;;25.84;100.00
11515;BME280;5814;41.936;25.556;2022-08-21T16:36:19;98233.05;;;25.71;100.00
11515;BME280;5814;41.936;25.556;2022-08-21T16:38:46;98234.73;;;25.72;100.00
11515;BME280;5814;41.936;25.556;2022-08-21T16:41:14;98244.16;;;25.67;100.00
11515;BME280;5814;41.936;25.556;2022-08-21T16:43:40;112497.60;;;-145.99;100.00
11515;BME280;5814;41.936;25.556;2022-08-21T16:46:08;98236.25;;;25.61;100.00
11515;BME280;5814;41.936;25.556;2022-08-21T16:48:34;98234.74;;;25.58;100.00
11515;BME280;5814;41.936;25.556;2022-08-21T16:51:02;98223.84;;;25.35;100.00
11515;BME280;5814;41.936;25.556;2022-08-21T16:53:29;98237.27;;;25.21;100.00
11515;BME280;5814;41.936;25.556;2022-08-21T16:55:56;98237.10;;;25.31;100.00
11515;BME280;5814;41.936;25.556;2022-08-21T16:58:26;98229.14;;;25.27;100.00
11515;BME280;5814;41.936;25.556;2022-08-21T17:00:52;98240.39;;;25.25;100.00
11515;BME280;5814;41.936;25.556;2022-08-21T17:03:20;98231.63;;;25.06;100.00
11515;BME280;5814;41.936;25.556;2022-08-21T17:05:47;98243.78;;;25.31;100.00
11515;BME280;5814;41.936;25.556;2022-08-21T17:08:15;98231.69;;;25.19;100.00
11515;BME280;5814;41.936;25.556;2022-08-21T17:10:43;98234.48;;;25.31;100.00
11515;BME280;5814;41.936;25.556;2022-08-21T17:13:09;98231.80;;;25.40;100.00
11515;BME280;5814;41.936;25.556;2022-08-21T17:15:36;98228.05;;;25.24;100.00
11515;BME280;5814;41.936;25.556;2022-08-21T17:18:04;98232.36;;;25.12;100.00
11515;BME280;5814;41.936;25.556;2022-08-21T17:20:30;98233.10;;;25.00;100.00
11515;BME280;5814;41.936;25.556;2022-08-21T17:22:58;98231.63;;;24.93;100.00
11515;BME280;5814;41.936;25.556;2022-08-21T17:25:25;98235.63;;;24.93;100.00
11515;BME280;5814;41.936;25.556;2022-08-21T17:27:52;98233.16;;;24.87;100.00
11515;BME280;5814;41.936;25.556;2022-08-21T17:30:19;98239.91;;;24.77;100.00
11515;BME280;5814;41.936;25.556;2022-08-21T17:32:47;98240.56;;;24.75;100.00
11515;BME280;5814;41.936;25.556;2022-08-21T17:35:14;98249.63;;;24.73;100.00
11515;BME280;5814;41.936;25.556;2022-08-21T17:37:41;98247.04;;;24.63;100.00
11515;BME280;5814;41.936;25.556;2022-08-21T17:40:10;98254.44;;;24.60;100.00
11515;BME280;5814;41.936;25.556;2022-08-21T17:42:38;98251.81;;;24.56;100.00
11515;BME280;5814;41.936;25.556;2022-08-21T17:45:04;98253.33;;;24.58;100.00
11515;BME280;5814;41.936;25.556;2022-08-21T17:47:32;98255.44;;;24.50;100.00
11515;BME280;5814;41.936;25.556;2022-08-21T17:49:59;98253.36;;;24.39;100.00
11515;BME280;5814;41.936;25.556;2022-08-21T17:52:26;98253.26;;;24.36;100.00
11515;BME280;5814;41.936;25.556;2022-08-21T17:54:53;98258.87;;;24.38;100.00
11515;BME280;5814;41.936;25.556;2022-08-21T17:57:21;98256.98;;;24.34;100.00
11515;BME280;5814;41.936;25.556;2022-08-21T17:59:48;98259.94;;;24.22;100.00
11515;BME280;5814;41.936;25.556;2022-08-21T18:02:15;98255.05;;;24.18;100.00
11515;BME280;5814;41.936;25.556;2022-08-21T18:04:42;98249.69;;;24.23;100.00
11515;BME280;5814;41.936;25.556;2022-08-21T18:07:09;98251.94;;;24.22;100.00
11515;BME280;5814;41.936;25.556;2022-08-21T18:09:36;98259.45;;;24.32;100.00
11515;BME280;5814;41.936;25.556;2022-08-21T18:12:04;98262.53;;;24.32;100.00
11515;BME280;5814;41.936;25.556;2022-08-21T18:14:32;98262.63;;;24.31;100.00
11515;BME280;5814;41.936;25.556;2022-08-21T18:16:58;98257.22;;;24.18;100.00
11515;BME280;5814;41.936;25.556;2022-08-21T18:19:26;112497.60;;;-145.99;100.00
11515;BME280;5814;41.936;25.556;2022-08-21T18:21:54;112497.60;;;-145.99;100.00
11515;BME280;5814;41.936;25.556;2022-08-21T18:24:21;112497.60;;;-145.99;100.00
11515;BME280;5814;41.936;25.556;2022-08-21T18:26:47;112497.60;;;-145.99;100.00
11515;BME280;5814;41.936;25.556;2022-08-21T18:29:15;112497.60;;;-145.99;100.00
11515;BME280;5814;41.936;25.556;2022-08-21T18:31:42;98255.95;;;24.31;100.00
11515;BME280;5814;41.936;25.556;2022-08-21T18:34:15;112497.60;;;-145.99;100.00
11515;BME280;5814;41.936;25.556;2022-08-21T18:36:39;112497.60;;;-145.99;100.00
11515;BME280;5814;41.936;25.556;2022-08-21T18:39:06;98246.44;;;24.29;100.00
11515;BME280;5814;41.936;25.556;2022-08-21T18:41:33;98250.55;;;24.23;100.00
11515;BME280;5814;41.936;25.556;2022-08-21T18:44:00;98247.38;;;24.24;100.00
11515;BME280;5814;41.936;25.556;2022-08-21T18:46:28;98247.55;;;24.31;100.00
11515;BME280;5814;41.936;25.556;2022-08-21T18:48:55;98246.13;;;24.32;100.00
11515;BME280;5814;41.936;25.556;2022-08-21T18:51:22;98246.63;;;24.31;100.00
11515;BME280;5814;41.936;25.556;2022-08-21T18:53:49;98247.04;;;24.31;100.00
11515;BME280;5814;41.936;25.556;2022-08-21T18:56:17;98244.70;;;24.33;100.00
11515;BME280;5814;41.936;25.556;2022-08-21T18:58:44;98240.65;;;24.33;100.00
11515;BME280;5814;41.936;25.556;2022-08-21T19:01:11;98246.13;;;24.32;100.00
11515;BME280;5814;41.936;25.556;2022-08-21T19:03:38;98243.85;;;24.28;100.00
11515;BME280;5814;41.936;25.556;2022-08-21T19:06:05;98243.31;;;24.33;100.00
11515;BME280;5814;41.936;25.556;2022-08-21T19:08:33;98235.38;;;24.33;100.00
11515;BME280;5814;41.936;25.556;2022-08-21T19:11:00;98252.20;;;24.38;100.00
11515;BME280;5814;41.936;25.556;2022-08-21T19:13:27;98248.86;;;24.45;100.00
11515;BME280;5814;41.936;25.556;2022-08-21T19:15:54;98235.09;;;24.36;100.00
11515;BME280;5814;41.936;25.556;2022-08-21T19:18:23;98244.58;;;24.43;100.00
11515;BME280;5814;41.936;25.556;2022-08-21T19:20:49;98246.47;;;24.47;100.00
11515;BME280;5814;41.936;25.556;2022-08-21T19:23:16;98241.77;;;24.49;100.00
11515;BME280;5814;41.936;25.556;2022-08-21T19:25:44;98235.33;;;24.47;100.00
11515;BME280;5814;41.936;25.556;2022-08-21T19:28:11;98238.41;;;24.43;100.00
11515;BME280;5814;41.936;25.556;2022-08-21T19:30:39;98233.27;;;24.50;100.00
11515;BME280;5814;41.936;25.556;2022-08-21T19:33:04;98235.98;;;24.44;100.00
11515;BME280;5814;41.936;25.556;2022-08-21T19:35:31;98236.39;;;24.40;100.00
11515;BME280;5814;41.936;25.556;2022-08-21T19:37:59;98236.35;;;24.45;100.00
11515;BME280;5814;41.936;25.556;2022-08-21T19:40:26;98230.45;;;24.38;100.00